createdAt,value
2022-10-19T00:01:24.771Z,16.65
2022-10-19T00:04:29.846Z,22.27
2022-10-19T00:07:35.845Z,21.90
2022-10-19T00:10:41.664Z,17.70
2022-10-19T00:13:46.391Z,33.60
2022-10-19T00:16:52.761Z,32.60
2022-10-19T00:19:58.591Z,30.63
2022-10-19T00:23:03.930Z,23.83
2022-10-19T00:26:08.492Z,20.40
2022-10-19T00:29:15.059Z,24.27
2022-10-19T00:32:22.669Z,24.15
2022-10-19T00:35:28.007Z,20.80
2022-10-19T00:38:36.783Z,24.80
2022-10-19T00:41:41.803Z,21.00
2022-10-19T00:44:46.159Z,21.77
2022-10-19T00:47:52.224Z,20.85
2022-10-19T00:50:58.434Z,14.75
2022-10-19T00:54:05.716Z,16.13
2022-10-19T00:57:12.337Z,20.80
2022-10-19T01:00:17.782Z,27.23
2022-10-19T01:03:23.495Z,17.13
2022-10-19T01:06:28.260Z,18.30
2022-10-19T01:09:32.891Z,19.60
2022-10-19T01:13:07.671Z,30.35
2022-10-19T01:17:01.279Z,19.35
2022-10-19T01:20:16.914Z,27.35
2022-10-19T01:23:39.561Z,19.95
2022-10-19T01:26:55.244Z,20.85
2022-10-19T01:30:15.407Z,11.95
2022-10-19T01:33:39.311Z,18.20
2022-10-19T01:37:16.772Z,16.13
2022-10-19T01:40:31.984Z,15.27
2022-10-19T01:43:45.961Z,20.95
2022-10-19T01:46:57.618Z,11.10
2022-10-19T01:50:50.379Z,18.85
2022-10-19T01:53:56.583Z,15.30
2022-10-19T01:57:03.206Z,8.27
2022-10-19T02:00:10.162Z,13.73
2022-10-19T02:03:17.307Z,17.83
2022-10-19T02:06:21.741Z,16.55
2022-10-19T02:09:24.797Z,9.45
2022-10-19T02:12:32.149Z,10.55
2022-10-19T02:15:39.230Z,13.38
2022-10-19T02:18:47.669Z,9.03
2022-10-19T02:21:52.765Z,10.27
2022-10-19T02:25:01.150Z,14.85
2022-10-19T02:28:06.150Z,10.63
2022-10-19T02:31:10.516Z,12.43
2022-10-19T02:34:14.858Z,12.40
2022-10-19T02:37:20.891Z,16.05
2022-10-19T02:40:28.899Z,5.07
2022-10-19T02:43:37.797Z,2.60
2022-10-19T02:46:53.236Z,5.43
2022-10-19T02:49:56.894Z,5.53
2022-10-19T02:53:01.238Z,3.15
2022-10-19T02:56:05.020Z,2.58
2022-10-19T02:59:08.867Z,4.53
2022-10-19T03:02:13.293Z,9.73
2022-10-19T03:05:17.257Z,1.85
2022-10-19T03:08:20.166Z,5.78
2022-10-19T03:11:23.486Z,4.25
2022-10-19T03:14:27.280Z,3.13
2022-10-19T03:17:31.293Z,3.80
2022-10-19T03:20:35.467Z,8.75
2022-10-19T03:23:40.827Z,3.30
2022-10-19T03:26:44.301Z,1.98
2022-10-19T03:29:48.005Z,2.28
2022-10-19T03:32:51.619Z,2.42
2022-10-19T03:36:35.411Z,6.28
2022-10-19T03:39:38.597Z,3.40
2022-10-19T03:42:42.175Z,1.45
2022-10-19T03:45:47.802Z,2.35
2022-10-19T03:48:52.012Z,3.08
2022-10-19T03:51:55.894Z,4.00
2022-10-19T03:55:01.026Z,4.55
2022-10-19T03:58:04.770Z,2.63
2022-10-19T04:01:12.728Z,2.13
2022-10-19T04:04:18.707Z,1.63
2022-10-19T04:07:22.295Z,6.80
2022-10-19T04:10:25.255Z,6.13
2022-10-19T04:13:29.497Z,2.20
2022-10-19T04:16:33.523Z,2.05
2022-10-19T04:19:37.477Z,3.97
2022-10-19T04:22:40.725Z,3.08
2022-10-19T04:25:45.043Z,3.05
2022-10-19T04:28:48.413Z,3.85
2022-10-19T04:31:53.417Z,5.85
2022-10-19T04:34:56.933Z,4.32
2022-10-19T04:38:00.671Z,7.97
2022-10-19T04:41:10.517Z,6.90
2022-10-19T04:44:14.563Z,4.38
2022-10-19T04:47:18.227Z,6.18
2022-10-19T04:50:21.947Z,7.00
2022-10-19T04:53:32.458Z,2.35
2022-10-19T04:56:36.418Z,2.60
2022-10-19T04:59:40.152Z,4.47
2022-10-19T05:02:45.729Z,2.35
2022-10-19T05:05:49.168Z,3.95
2022-10-19T05:08:54.376Z,2.92
2022-10-19T05:11:58.427Z,1.63
2022-10-19T05:15:03.419Z,9.70
2022-10-19T05:18:07.462Z,6.15
2022-10-19T05:21:14.506Z,3.75
2022-10-19T05:24:19.037Z,3.72
2022-10-19T05:27:23.531Z,9.80
2022-10-19T05:30:28.694Z,16.85
2022-10-19T05:33:33.332Z,5.28
2022-10-19T05:36:39.907Z,3.00
2022-10-19T05:39:45.015Z,1.20
2022-10-19T05:42:49.466Z,5.40
2022-10-19T05:45:53.113Z,3.85
2022-10-19T05:48:59.544Z,2.35
2022-10-19T05:52:03.766Z,11.27
2022-10-19T05:55:08.874Z,5.32
2022-10-19T05:58:13.526Z,4.57
2022-10-19T06:01:20.209Z,1.98
2022-10-19T06:04:24.268Z,6.47
2022-10-19T06:07:28.085Z,3.63
2022-10-19T06:10:32.352Z,4.28
2022-10-19T06:13:37.913Z,7.90
2022-10-19T06:16:43.181Z,0.93
2022-10-19T06:19:47.987Z,4.50
2022-10-19T06:22:51.620Z,2.50
2022-10-19T06:25:56.327Z,1.55
2022-10-19T06:29:01.819Z,3.20
2022-10-19T06:32:06.708Z,3.00
2022-10-19T06:35:10.792Z,7.47
2022-10-19T06:38:15.517Z,0.82
2022-10-19T06:41:20.125Z,5.55
2022-10-19T06:44:24.257Z,4.22
2022-10-19T06:47:32.198Z,2.33
2022-10-19T06:50:38.739Z,2.55
2022-10-19T06:53:42.367Z,5.80
2022-10-19T06:56:47.002Z,3.20
2022-10-19T06:59:53.059Z,5.18
2022-10-19T07:03:00.302Z,5.93
2022-10-19T07:06:07.463Z,2.75
2022-10-19T07:09:12.044Z,7.85
2022-10-19T07:12:16.367Z,1.67
2022-10-19T07:15:20.535Z,3.97
2022-10-19T07:18:24.847Z,3.80
2022-10-19T07:21:28.963Z,6.38
2022-10-19T07:24:32.534Z,2.95
2022-10-19T07:27:38.281Z,3.72
2022-10-19T07:30:42.072Z,1.75
2022-10-19T07:33:46.586Z,4.13
2022-10-19T07:36:50.766Z,1.70
2022-10-19T07:39:54.842Z,2.97
2022-10-19T07:42:59.364Z,9.95
2022-10-19T07:46:07.268Z,3.80
2022-10-19T07:49:16.740Z,6.72
2022-10-19T07:52:21.565Z,4.68
2022-10-19T07:55:25.624Z,9.00
2022-10-19T07:58:30.211Z,4.85
2022-10-19T08:01:39.203Z,9.00
2022-10-19T08:04:59.779Z,7.07
2022-10-19T08:08:05.222Z,2.33
2022-10-19T08:11:33.996Z,9.38
2022-10-19T08:14:37.547Z,15.20
2022-10-19T08:17:41.245Z,8.80
2022-10-19T08:20:44.969Z,5.20
2022-10-19T08:23:48.519Z,5.35
2022-10-19T08:26:52.066Z,9.35
2022-10-19T08:29:55.828Z,7.50
2022-10-19T08:33:00.148Z,7.07
2022-10-19T08:36:10.002Z,15.23
2022-10-19T08:39:14.217Z,12.70
2022-10-19T08:42:41.737Z,22.85
2022-10-19T08:46:15.290Z,26.83
2022-10-19T08:49:22.848Z,17.45
2022-10-19T08:52:34.841Z,10.32
2022-10-19T08:56:26.863Z,9.77
2022-10-19T08:59:50.675Z,6.95
2022-10-19T09:03:20.019Z,7.75
2022-10-19T09:06:49.505Z,4.43
2022-10-19T09:10:18.030Z,10.38
2022-10-19T09:13:41.315Z,7.78
2022-10-19T09:16:51.242Z,7.80
2022-10-19T09:19:54.863Z,17.98
2022-10-19T09:23:13.050Z,28.20
2022-10-19T09:26:19.871Z,25.05
2022-10-19T09:30:06.592Z,33.25
2022-10-19T09:33:29.339Z,27.45
2022-10-19T09:36:53.455Z,18.95
2022-10-19T09:39:57.536Z,19.95
2022-10-19T09:43:09.979Z,19.33
2022-10-19T09:46:21.727Z,16.52
2022-10-19T09:49:41.097Z,20.42
2022-10-19T09:52:47.544Z,15.55
2022-10-19T09:56:09.726Z,15.95
2022-10-19T09:59:24.323Z,23.58
2022-10-19T10:02:34.949Z,20.02
2022-10-19T10:05:42.837Z,20.67
2022-10-19T10:08:58.443Z,22.10
2022-10-19T10:12:02.525Z,17.30
2022-10-19T10:15:07.962Z,12.60
2022-10-19T10:18:20.231Z,11.55
2022-10-19T10:21:27.541Z,9.93
2022-10-19T10:24:34.071Z,12.63
2022-10-19T10:27:39.501Z,13.40
2022-10-19T10:30:46.754Z,8.88
2022-10-19T10:34:12.147Z,12.35
2022-10-19T10:37:42.462Z,12.02
2022-10-19T10:41:03.461Z,12.18
2022-10-19T10:44:31.283Z,15.45
2022-10-19T10:47:35.339Z,23.63
2022-10-19T10:50:39.943Z,21.75
2022-10-19T10:53:44.514Z,29.42
2022-10-19T10:57:16.750Z,41.47
2022-10-19T11:03:53.146Z,53.58
2022-10-19T11:07:02.865Z,53.07
2022-10-19T11:10:19.847Z,48.85
2022-10-19T11:13:34.583Z,40.67
2022-10-19T11:16:44.356Z,44.83
2022-10-19T11:19:59.503Z,43.40
2022-10-19T11:23:16.355Z,35.60
2022-10-19T11:26:31.832Z,38.92
2022-10-19T11:29:48.130Z,35.25
2022-10-19T11:33:05.843Z,29.27
2022-10-19T11:36:40.675Z,36.65
2022-10-19T11:39:55.642Z,32.30
2022-10-19T11:43:13.863Z,18.83
2022-10-19T11:46:42.789Z,33.00
2022-10-19T11:50:34.588Z,26.20
2022-10-19T11:54:02.071Z,27.10
2022-10-19T11:57:21.442Z,24.20
2022-10-19T12:00:40.153Z,25.80
2022-10-19T12:04:22.382Z,24.83
2022-10-19T12:07:41.532Z,17.63
2022-10-19T12:11:01.219Z,12.70
2022-10-19T12:14:12.732Z,20.00
2022-10-19T12:17:25.674Z,18.05
2022-10-19T12:20:54.294Z,17.10
2022-10-19T12:24:00.689Z,16.08
2022-10-19T12:27:05.211Z,20.95
2022-10-19T12:30:29.254Z,20.08
2022-10-19T12:33:36.063Z,19.45
2022-10-19T12:37:05.092Z,20.10
2022-10-19T12:40:20.688Z,12.55
2022-10-19T12:43:34.209Z,23.50
2022-10-19T12:47:00.042Z,26.48
2022-10-19T12:53:43.184Z,21.08
2022-10-19T12:56:53.876Z,29.95
2022-10-19T13:00:32.868Z,28.20
2022-10-19T13:03:42.769Z,23.83
2022-10-19T13:06:59.403Z,20.27
2022-10-19T13:10:06.918Z,19.48
2022-10-19T13:13:53.589Z,24.05
2022-10-19T13:17:01.377Z,12.27
2022-10-19T13:20:17.010Z,15.68
2022-10-19T13:23:30.154Z,21.65
2022-10-19T13:26:35.282Z,17.52
2022-10-19T13:29:41.833Z,26.20
2022-10-19T13:36:25.847Z,30.40
2022-10-19T13:39:30.990Z,29.65
2022-10-19T13:42:34.907Z,30.02
2022-10-19T13:45:40.234Z,32.63
2022-10-19T13:49:08.367Z,43.28
2022-10-19T13:52:37.100Z,35.92
2022-10-19T13:55:43.015Z,35.65
2022-10-19T13:59:28.364Z,30.65
2022-10-19T14:02:52.551Z,28.08
2022-10-19T14:06:34.355Z,33.85
2022-10-19T14:10:07.611Z,27.52
2022-10-19T14:13:16.394Z,19.45
2022-10-19T14:16:22.552Z,23.83
2022-10-19T14:19:43.341Z,23.88
2022-10-19T14:22:47.593Z,30.05
2022-10-19T14:25:55.731Z,24.70
2022-10-19T14:29:00.695Z,30.60
2022-10-19T14:32:05.422Z,23.88
2022-10-19T14:35:34.820Z,21.70
2022-10-19T14:38:41.214Z,24.33
2022-10-19T14:41:46.453Z,19.43
2022-10-19T14:44:50.556Z,26.50
2022-10-19T14:48:08.591Z,23.95
2022-10-19T14:51:38.184Z,29.02
2022-10-19T14:54:45.484Z,23.98
2022-10-19T14:57:53.989Z,19.52
2022-10-19T15:00:58.720Z,23.20
2022-10-19T15:04:03.177Z,16.92
2022-10-19T15:07:23.736Z,17.25
2022-10-19T15:10:42.017Z,18.73
2022-10-19T15:13:46.497Z,17.67
2022-10-19T15:17:06.816Z,16.42
2022-10-19T15:20:26.020Z,24.55
2022-10-19T15:23:37.887Z,18.35
2022-10-19T15:26:41.506Z,22.02
2022-10-19T15:30:00.284Z,22.45
2022-10-19T15:33:03.728Z,25.20
2022-10-19T15:36:12.039Z,16.63
2022-10-19T15:39:37.786Z,17.88
2022-10-19T15:42:50.228Z,18.70
2022-10-19T15:46:06.191Z,21.60
2022-10-19T15:52:36.203Z,26.27
2022-10-19T15:55:39.381Z,19.60
2022-10-19T15:58:43.538Z,34.45
2022-10-19T16:01:52.584Z,24.48
2022-10-19T16:05:01.136Z,29.88
2022-10-19T16:08:07.808Z,35.88
2022-10-19T16:11:25.443Z,30.20
2022-10-19T16:14:35.718Z,27.10
2022-10-19T16:17:43.134Z,19.98
2022-10-19T16:20:47.806Z,26.77
2022-10-19T16:23:52.778Z,18.58
2022-10-19T16:26:56.409Z,17.10
2022-10-19T16:30:01.829Z,18.85
2022-10-19T16:33:06.188Z,19.35
2022-10-19T16:36:10.705Z,20.30
2022-10-19T16:39:14.494Z,18.42
2022-10-19T16:42:18.262Z,23.75
2022-10-19T16:45:21.997Z,22.48
2022-10-19T16:48:26.827Z,24.27
2022-10-19T16:51:34.995Z,16.20
2022-10-19T16:54:38.388Z,20.00
2022-10-19T16:57:41.929Z,20.92
2022-10-19T17:00:45.070Z,23.92
2022-10-19T17:03:49.673Z,19.52
2022-10-19T17:06:58.061Z,19.25
2022-10-19T17:10:09.605Z,19.65
2022-10-19T17:13:13.562Z,20.42
2022-10-19T17:16:20.550Z,24.77
2022-10-19T17:19:24.310Z,27.73
2022-10-19T17:25:55.548Z,38.03
2022-10-19T17:28:59.413Z,34.67
2022-10-19T17:32:07.247Z,49.55
2022-10-19T17:35:19.617Z,32.70
2022-10-19T17:51:29.102Z,26.42
2022-10-19T17:54:43.516Z,30.40
2022-10-19T17:58:00.761Z,25.20
2022-10-19T18:07:40.530Z,18.77
2022-10-19T18:20:42.097Z,21.75
2022-10-19T18:23:46.316Z,23.92
2022-10-19T18:26:54.450Z,25.40
2022-10-19T18:30:04.723Z,21.23
2022-10-19T18:36:41.115Z,18.98
2022-10-19T18:39:57.753Z,22.40
2022-10-19T18:43:02.749Z,24.95
2022-10-19T18:46:06.398Z,25.98
2022-10-19T18:52:37.307Z,20.17
2022-10-19T18:59:02.059Z,18.85
2022-10-19T19:02:13.595Z,18.40
2022-10-19T19:05:29.143Z,15.75
2022-10-19T19:08:36.769Z,18.92
2022-10-19T19:28:13.836Z,16.73
2022-10-19T19:31:20.153Z,18.60
2022-10-19T19:34:25.789Z,24.95
2022-10-19T19:44:06.288Z,16.50
2022-10-19T19:50:39.363Z,26.83
2022-10-19T20:00:30.380Z,27.42
2022-10-19T20:03:35.506Z,22.15
2022-10-19T20:09:58.928Z,23.02
2022-10-19T20:13:11.476Z,21.73
2022-10-19T20:19:39.237Z,28.23
2022-10-19T20:22:48.208Z,28.13
2022-10-19T20:25:56.184Z,28.90
2022-10-19T20:29:10.916Z,31.13
2022-10-19T20:32:14.412Z,22.33
2022-10-19T20:35:18.330Z,24.98
2022-10-19T20:38:23.347Z,21.23
2022-10-19T20:41:28.627Z,19.90
2022-10-19T20:44:33.807Z,17.75
2022-10-19T20:47:37.166Z,21.20
2022-10-19T20:57:17.166Z,16.98
2022-10-19T21:00:20.873Z,17.75
2022-10-19T21:03:24.880Z,19.52
2022-10-19T21:06:31.106Z,20.08
2022-10-19T21:09:35.114Z,27.63
2022-10-19T21:12:38.875Z,19.77
2022-10-19T21:15:42.608Z,23.73
2022-10-19T21:18:50.336Z,19.70
2022-10-19T21:25:01.302Z,19.02
2022-10-19T21:28:05.142Z,17.27
2022-10-19T21:31:10.824Z,19.63
2022-10-19T21:34:20.839Z,19.15
2022-10-19T21:37:24.059Z,22.13
2022-10-19T21:40:29.477Z,21.15
2022-10-19T21:43:34.103Z,24.00
2022-10-19T21:46:39.199Z,20.42
2022-10-19T21:49:42.999Z,23.33
2022-10-19T21:52:46.768Z,25.92
2022-10-19T21:55:52.169Z,23.55
2022-10-19T21:58:56.728Z,26.25
2022-10-19T22:02:01.497Z,28.02
2022-10-19T22:05:05.117Z,28.95
2022-10-19T22:08:08.658Z,29.05
2022-10-19T22:11:14.936Z,21.40
2022-10-19T22:14:18.570Z,24.85
2022-10-19T22:17:23.046Z,28.15
2022-10-19T22:20:26.489Z,35.70
2022-10-19T22:23:31.054Z,28.40
2022-10-19T22:29:59.512Z,25.85
2022-10-19T22:33:03.842Z,24.42
2022-10-19T22:36:10.134Z,22.63
2022-10-19T22:39:14.614Z,21.67
2022-10-19T22:42:21.175Z,23.10
2022-10-19T22:45:24.431Z,28.80
2022-10-19T22:48:28.624Z,29.30
2022-10-19T22:51:31.652Z,31.60
2022-10-19T22:54:34.602Z,24.25
2022-10-19T22:57:37.538Z,30.35
2022-10-19T23:00:40.611Z,29.08
2022-10-19T23:03:43.691Z,38.67
2022-10-19T23:06:46.634Z,34.85
2022-10-19T23:09:49.550Z,35.03
2022-10-19T23:12:54.359Z,29.35
2022-10-19T23:15:58.038Z,27.05
2022-10-19T23:19:01.802Z,26.33
2022-10-19T23:22:04.704Z,27.25
2022-10-19T23:25:09.304Z,28.23
2022-10-19T23:28:13.077Z,25.70
2022-10-19T23:31:26.969Z,21.45
2022-10-19T23:34:30.373Z,25.70
2022-10-19T23:37:38.034Z,25.25
2022-10-19T23:40:44.093Z,22.65
2022-10-19T23:43:48.472Z,25.05
2022-10-19T23:46:52.045Z,27.95
2022-10-19T23:49:55.684Z,24.20
2022-10-19T23:52:59.331Z,25.77
2022-10-19T23:56:04.795Z,26.67
2022-10-19T23:59:10.199Z,39.03
